Flight Track Log - Related Links

Times and Time Zones

All times are in EDT time to prevent confusion due to time zone crossing. See the DAL6234 flight status page for this flight to view local times or setup timezone preferences in your user account.


Time Position Orientation Groundspeed Altitude Reporting Facility
EDT Latitude Longitude Course Direction KTS MPH feet Rate Location/Type
Thu 04:04:24 PM 40.7667 -73.8500 153° Southeast 156 180 1,100  Level New York TRACON
Thu 04:05:24 PM 40.7167 -73.8167 153° Southeast 208 239 3,000 1,750 Climbing New York TRACON
Thu 04:06:24 PM 40.7667 -73.7500 45° Northeast 233 268 4,600 1,774 Climbing New York TRACON
Thu 04:07:19 PM 40.8333 -73.7833 339° North 273 314 6,400 2,302 Climbing New York TRACON
Thu 04:09:16 PM 40.9522 -73.8703 331° Northwest 293 337 11,200 2,191 Climbing New York Center
Thu 04:10:17 PM 40.9994 -73.9714 302° West 281 323 12,900 1,623 Climbing New York Center
Thu 04:11:18 PM 41.0344 -74.0636 297° West 304 350 14,500 1,613 Climbing New York Center
Thu 04:12:16 PM 41.0772 -74.1758 297° West 329 379 16,100 814 Climbing New York Center
Thu 04:13:16 PM 41.1253 -74.3078 296° West 354 407 16,100  Level New York Center
Thu 04:14:17 PM 41.1700 -74.4147 299° West 366 421 16,100  Level New York Center
Thu 04:15:17 PM 41.2178 -74.5472 296° West 371 427 16,100  Level New York Center
Thu 04:16:17 PM 41.2747 -74.6525 306° West 382 440 16,100 843 Level New York Center
Thu 04:17:18 PM 41.3481 -74.7700 310° West 382 440 17,800 1,488 Climbing New York Center
Thu 04:18:18 PM 41.4150 -74.8792 309° West 382 440 19,100 1,250 Climbing New York Center
Thu 04:19:18 PM 41.4861 -74.9914 310° West 387 445 20,300 1,322 Climbing New York Center
Thu 04:20:16 PM 41.5569 -75.1039 310° West 387 445 21,700 857 Climbing New York Center
Thu 04:21:17 PM 41.6256 -75.2194 308° West 387 445 22,000 148 Climbing New York Center
Thu 04:22:18 PM 41.6961 -75.3381 309° West 392 451 22,000  Level New York Center
Thu 04:23:15 PM 41.7683 -75.4597 309° West 408 470 22,000  Level New York Center
Thu 04:24:16 PM 41.8383 -75.5817 308° West 413 475 22,000 -149 Level New York Center
Thu 04:25:16 PM 41.9083 -75.7008 308° West 413 475 21,700 -893 Descending New York Center
Thu 04:26:17 PM 41.9744 -75.8147 308° West 408 470 20,200 -1,525 Descending New York Center
Thu 04:27:18 PM 42.0364 -75.9256 307° West 392 451 18,600 -1,513 Descending New York Center
Thu 04:28:16 PM 42.1003 -76.0367 308° West 385 443 17,200 -3,832 Descending New York Center
Thu 04:29:17 PM 42.1711 -76.1233 318° Northwest 374 430 11,000 -1,587 Descending New York Center
Thu 04:30:17 PM 42.2814 -76.1269 359° North 348 400 14,000 1,852 Climbing New York Center
Thu 04:30:38 PM 42.3242 -76.1192 North 398 458 13,500 -1,538 Descending Boston Center
Thu 04:30:56 PM 42.3575 -76.1156 North 396 456 13,000 -1,367 Descending Boston Center
Thu 04:31:57 PM 42.4622 -76.1047 North 380 437 11,700 -984 Descending Boston Center
Thu 04:32:58 PM 42.5542 -76.0933 North 336 387 11,000 -488 Descending Boston Center
Thu 04:34:00 PM 42.6483 -76.0819 North 331 381 10,700 -780 Descending Boston Center
Thu 04:35:01 PM 42.7183 -76.1142 341° North 258 297 9,400 -1,500 Descending Boston Center
Thu 04:36:00 PM 42.7681 -76.1881 313° West 249 287 7,700 -1,613 Descending Boston Center
Thu 04:37:00 PM 42.8158 -76.2561 314° West 251 289 6,200 -1,500 Descending Boston Center
Thu 04:38:00 PM 42.8653 -76.3356 310° West 280 322 4,700 -1,091 Descending Boston Center
Thu 04:39:01 PM 42.9350 -76.3683 341° North 265 305 4,000 -689 Descending Boston Center
Thu 04:40:02 PM 42.9992 -76.3808 352° North 205 236 3,300 -787 Descending Boston Center
Thu 04:41:03 PM 43.0556 -76.3789 North 192 221 2,400 -443 Descending Boston Center
Thu 04:42:04 PM 43.0983 -76.3475 28° Northeast 184 212 2,400  Level Boston Center

Login

Don't have an account? Register now (free) for customized features, flight alerts, and more!